createdAt,value
2022-10-26T00:01:29.637Z,-11160.22
2022-10-26T00:04:36.113Z,-11172.31
2022-10-26T00:07:42.328Z,-11163.59
2022-10-26T00:10:48.660Z,-11165.41
2022-10-26T00:13:55.043Z,-11165.28
2022-10-26T00:17:03.099Z,-11171.47
2022-10-26T00:20:10.349Z,-11171.47
2022-10-26T00:23:16.551Z,-11165.97
2022-10-26T00:26:22.834Z,-11164.16
2022-10-26T00:29:29.375Z,-11160.22
2022-10-26T00:32:37.347Z,-11161.91
2022-10-26T00:35:46.610Z,-11159.38
2022-10-26T00:38:54.413Z,-11164.72
2022-10-26T00:42:00.735Z,-11142.78
2022-10-26T00:45:18.664Z,-11119.47
2022-10-26T00:48:29.952Z,-11137.88
2022-10-26T00:51:40.020Z,-11119.75
2022-10-26T00:54:46.894Z,-11142.38
2022-10-26T00:57:54.782Z,-11145.03
2022-10-26T01:01:00.774Z,-11144.75
2022-10-26T01:04:08.544Z,-11146.56
2022-10-26T01:07:15.811Z,-11147.28
2022-10-26T01:10:22.658Z,-11139.84
2022-10-26T01:13:31.459Z,-11129.44
2022-10-26T01:16:50.062Z,-11140.53
2022-10-26T01:20:36.888Z,-11147.00
2022-10-26T01:24:05.946Z,-11153.31
2022-10-26T01:27:26.339Z,-11144.91
2022-10-26T01:30:40.287Z,-11149.94
2022-10-26T01:33:52.496Z,-11134.22
2022-10-26T01:37:02.312Z,-11130.56
2022-10-26T01:40:13.375Z,-11115.53
2022-10-26T01:43:21.327Z,-11121.44
2022-10-26T01:46:34.015Z,-11123.41
2022-10-26T01:49:43.797Z,-11118.91
2022-10-26T01:52:51.767Z,-11128.47
2022-10-26T01:55:58.018Z,-11138.56
2022-10-26T01:59:34.862Z,-11119.19
2022-10-26T02:02:56.056Z,-11125.38
2022-10-26T02:06:13.352Z,-11120.88
2022-10-26T02:09:28.788Z,-11118.75
2022-10-26T02:12:46.954Z,-11130.41
2022-10-26T02:15:58.450Z,-11117.09
2022-10-26T02:19:11.678Z,-11129.72
2022-10-26T02:22:23.378Z,-11122.00
2022-10-26T02:25:33.382Z,-11120.88
2022-10-26T02:28:43.817Z,-11114.69
2022-10-26T02:31:52.799Z,-11118.63
2022-10-26T02:35:03.180Z,-11121.44
2022-10-26T02:38:12.230Z,-11106.28
2022-10-26T02:41:21.676Z,-11120.44
2022-10-26T02:44:30.963Z,-11127.06
2022-10-26T02:47:37.502Z,-11138.16
2022-10-26T02:50:55.124Z,-11134.91
2022-10-26T02:54:08.703Z,-11134.50
2022-10-26T02:57:18.416Z,-11133.09
2022-10-26T03:00:24.619Z,-11127.91
2022-10-26T03:03:30.723Z,-11099.09
2022-10-26T03:06:38.300Z,-11091.09
2022-10-26T03:09:44.320Z,-11115.41
2022-10-26T03:12:50.993Z,-11104.59
2022-10-26T03:15:58.207Z,-11104.31
2022-10-26T03:19:07.299Z,-11106.13
2022-10-26T03:22:15.000Z,-11118.47
2022-10-26T03:25:20.935Z,-11127.63
2022-10-26T03:28:27.788Z,-11126.34
2022-10-26T03:31:33.851Z,-11123.41
2022-10-26T03:34:40.088Z,-11131.25
2022-10-26T03:37:48.020Z,-11123.13
2022-10-26T03:40:54.116Z,-11109.91
2022-10-26T03:44:00.591Z,-11107.97
2022-10-26T03:47:06.991Z,-11090.25
2022-10-26T03:50:14.791Z,-11089.41
2022-10-26T03:53:22.329Z,-11095.03
2022-10-26T03:56:28.583Z,-11104.72
2022-10-26T03:59:34.805Z,-11100.78
2022-10-26T04:02:40.998Z,-11104.31
2022-10-26T04:05:47.226Z,-11100.66
2022-10-26T04:08:58.348Z,-11092.22
2022-10-26T04:12:04.579Z,-11096.72
2022-10-26T04:15:11.488Z,-11102.34
2022-10-26T04:18:17.679Z,-11112.59
2022-10-26T04:21:23.540Z,-11110.75
2022-10-26T04:24:31.111Z,-11088.16
2022-10-26T04:27:37.087Z,-11075.38
2022-10-26T04:30:43.698Z,-11068.06
2022-10-26T04:33:49.938Z,-11070.88
2022-10-26T04:36:57.141Z,-11066.13
2022-10-26T04:43:15.865Z,-11088.00
2022-10-26T04:46:21.880Z,-11085.47
2022-10-26T04:49:28.412Z,-11097.56
2022-10-26T04:52:34.718Z,-11093.34
2022-10-26T04:55:42.477Z,-11103.75
2022-10-26T04:58:48.587Z,-11107.13
2022-10-26T05:01:55.020Z,-11117.50
2022-10-26T05:08:13.000Z,-11118.47
2022-10-26T05:11:20.740Z,-11123.97
2022-10-26T05:14:26.732Z,-11116.38
2022-10-26T05:17:33.047Z,-11096.16
2022-10-26T05:20:39.250Z,-11093.06
2022-10-26T05:23:47.094Z,-11096.84
2022-10-26T05:26:54.621Z,-11089.69
2022-10-26T05:30:00.616Z,-11091.09
2022-10-26T05:33:07.715Z,-11104.59
2022-10-26T05:36:13.907Z,-11119.19
2022-10-26T05:39:20.087Z,-11123.53
2022-10-26T05:42:27.761Z,-11130.13
2022-10-26T05:45:33.814Z,-11133.38
2022-10-26T05:48:40.048Z,-11130.56
2022-10-26T05:51:46.269Z,-11144.75
2022-10-26T05:54:52.452Z,-11170.63
2022-10-26T05:58:00.718Z,-11174.69
2022-10-26T06:01:15.327Z,-11172.59
2022-10-26T06:04:31.199Z,-11179.31
2022-10-26T06:07:38.059Z,-11187.63
2022-10-26T06:10:44.686Z,-11183.97
2022-10-26T06:13:54.842Z,-11184.09
2022-10-26T06:17:13.275Z,-11185.09
2022-10-26T06:20:40.868Z,-11188.19
2022-10-26T06:23:53.378Z,-11200.69
2022-10-26T06:27:06.643Z,-11196.47
2022-10-26T06:30:14.603Z,-11199.00
2022-10-26T06:33:30.328Z,-11206.59
2022-10-26T06:36:37.778Z,-11218.00
2022-10-26T06:39:49.992Z,-11233.03
2022-10-26T06:42:59.448Z,-11232.91
2022-10-26T06:46:17.693Z,-11243.47
2022-10-26T06:49:30.308Z,-11251.06
2022-10-26T06:52:42.867Z,-11254.44
2022-10-26T06:55:51.644Z,-11268.38
2022-10-26T06:59:07.036Z,-11263.59
2022-10-26T07:02:15.164Z,-11283.28
2022-10-26T07:05:21.123Z,-11277.50
2022-10-26T07:08:27.431Z,-11292.28
2022-10-26T07:11:33.814Z,-11287.91
2022-10-26T07:14:40.236Z,-11300.31
2022-10-26T07:17:49.681Z,-11306.66
2022-10-26T07:20:56.008Z,-11310.31
2022-10-26T07:24:02.461Z,-11307.22
2022-10-26T07:27:09.011Z,-11316.09
2022-10-26T07:30:15.266Z,-11319.47
2022-10-26T07:33:22.925Z,-11326.22
2022-10-26T07:36:30.407Z,-11323.13
2022-10-26T07:39:36.574Z,-11331.00
2022-10-26T07:42:44.285Z,-11340.72
2022-10-26T07:45:54.033Z,-11349.31
2022-10-26T07:49:01.682Z,-11355.78
2022-10-26T07:52:07.640Z,-11359.19
2022-10-26T07:55:14.274Z,-11373.13
2022-10-26T07:58:23.645Z,-11379.63
2022-10-26T08:01:29.818Z,-11370.59
2022-10-26T08:04:37.175Z,-11380.19
2022-10-26T08:07:44.850Z,-11377.63
2022-10-26T08:10:52.370Z,-11377.78
2022-10-26T08:13:58.655Z,-11378.06
2022-10-26T08:17:04.971Z,-11393.00
2022-10-26T08:20:13.458Z,-11402.28
2022-10-26T08:23:19.291Z,-11397.78
2022-10-26T08:26:25.662Z,-11409.91
2022-10-26T08:29:31.938Z,-11409.34
2022-10-26T08:32:38.471Z,-11414.97
2022-10-26T08:35:45.976Z,-11428.94
2022-10-26T08:38:52.642Z,-11436.97
2022-10-26T08:42:05.677Z,-11438.94
2022-10-26T08:45:19.468Z,-11439.78
2022-10-26T08:48:30.419Z,-11452.47
2022-10-26T08:51:41.463Z,-11450.22
2022-10-26T08:54:53.222Z,-11463.75
2022-10-26T08:58:02.646Z,-11472.09
2022-10-26T09:01:10.525Z,-11472.50
2022-10-26T09:04:17.078Z,-11468.00
2022-10-26T09:07:41.415Z,-11485.06
2022-10-26T09:11:01.203Z,-11492.53
2022-10-26T09:14:16.650Z,-11495.50
2022-10-26T09:17:38.076Z,-11499.03
2022-10-26T09:20:55.941Z,-11507.22
2022-10-26T09:24:09.149Z,-11510.59
2022-10-26T09:27:22.653Z,-11518.78
2022-10-26T09:30:30.384Z,-11528.38
2022-10-26T09:33:40.959Z,-11529.06
2022-10-26T09:36:47.379Z,-11522.16
2022-10-26T09:40:08.735Z,-11540.22
2022-10-26T09:43:19.742Z,-11551.78
2022-10-26T09:46:32.484Z,-11551.22
2022-10-26T09:49:48.745Z,-11537.69
2022-10-26T09:52:55.043Z,-11543.75
2022-10-26T09:56:07.000Z,-11553.34
2022-10-26T09:59:14.559Z,-11560.53
2022-10-26T10:02:37.230Z,-11561.09
2022-10-26T10:05:51.366Z,-11556.31
2022-10-26T10:09:11.105Z,-11561.94
2022-10-26T10:12:22.428Z,-11573.53
2022-10-26T10:15:28.579Z,-11573.81
2022-10-26T10:18:36.412Z,-11564.22
2022-10-26T10:21:49.710Z,-11564.06
2022-10-26T10:24:57.558Z,-11559.97
2022-10-26T10:31:33.604Z,-11573.81
2022-10-26T10:34:39.702Z,-11566.75
2022-10-26T10:37:47.010Z,-11585.09
2022-10-26T10:40:56.618Z,-11577.75
2022-10-26T10:44:09.210Z,-11572.41
2022-10-26T10:47:24.141Z,-11573.66
2022-10-26T10:50:31.427Z,-11571.41
2022-10-26T10:53:45.167Z,-11571.97
2022-10-26T10:56:54.513Z,-11573.81
2022-10-26T11:00:05.825Z,-11585.66
2022-10-26T11:03:34.625Z,-11566.75
2022-10-26T11:06:43.871Z,-11584.25
2022-10-26T11:13:11.709Z,-11572.69
2022-10-26T11:16:24.972Z,-11571.13
2022-10-26T11:19:36.351Z,-11572.25
2022-10-26T11:22:48.445Z,-11578.03
2022-10-26T11:26:00.547Z,-11576.19
2022-10-26T11:29:13.487Z,-11579.16
2022-10-26T11:32:25.016Z,-11565.91
2022-10-26T11:35:34.459Z,-11581.72
2022-10-26T11:38:56.346Z,-11567.88
2022-10-26T11:42:08.665Z,-11580.72
2022-10-26T11:45:23.631Z,-11576.06
2022-10-26T11:48:37.851Z,-11577.91
2022-10-26T11:51:51.354Z,-11582.56
2022-10-26T11:55:00.659Z,-11575.63
2022-10-26T11:58:07.014Z,-11580.00
2022-10-26T12:01:16.861Z,-11580.00
2022-10-26T12:04:31.004Z,-11579.88
2022-10-26T12:07:40.223Z,-11580.72
2022-10-26T12:10:54.030Z,-11566.19
2022-10-26T12:14:06.040Z,-11579.59
2022-10-26T12:17:18.518Z,-11578.75
2022-10-26T12:21:03.657Z,-11586.66
2022-10-26T12:24:28.416Z,-11582.84
2022-10-26T12:27:51.958Z,-11572.97
2022-10-26T12:31:43.443Z,-11578.88
2022-10-26T12:35:02.131Z,-11589.34
2022-10-26T12:38:50.017Z,-11583.69
2022-10-26T12:41:59.920Z,-11590.19
2022-10-26T12:45:20.127Z,-11600.63
2022-10-26T12:48:41.338Z,-11598.09
2022-10-26T12:51:47.667Z,-11594.00
2022-10-26T12:55:16.437Z,-11589.06
2022-10-26T12:58:46.648Z,-11589.63
2022-10-26T13:02:40.174Z,-11586.78
2022-10-26T13:06:18.390Z,-11584.53
2022-10-26T13:09:28.957Z,-11582.84
2022-10-26T13:12:48.113Z,-11588.06
2022-10-26T13:15:58.768Z,-11580.28
2022-10-26T13:19:05.014Z,-11582.69
2022-10-26T13:22:17.316Z,-11584.94
2022-10-26T13:25:26.185Z,-11592.44
2022-10-26T13:28:43.521Z,-11589.75
2022-10-26T13:31:59.128Z,-11578.19
2022-10-26T13:35:07.658Z,-11574.09
2022-10-26T13:38:19.671Z,-11576.63
2022-10-26T13:41:36.353Z,-11582.97
2022-10-26T13:44:49.368Z,-11572.69
2022-10-26T13:48:03.107Z,-11568.59
2022-10-26T13:51:21.254Z,-11557.56
2022-10-26T13:54:34.038Z,-11551.50
2022-10-26T13:57:44.734Z,-11545.59
2022-10-26T14:01:14.834Z,-11539.94
2022-10-26T14:04:28.764Z,-11532.03
2022-10-26T14:07:38.799Z,-11527.53
2022-10-26T14:10:48.666Z,-11520.19
2022-10-26T14:13:55.421Z,-11518.91
2022-10-26T14:17:01.820Z,-11516.22
2022-10-26T14:20:19.581Z,-11516.22
2022-10-26T14:23:30.398Z,-11512.28
2022-10-26T14:26:41.425Z,-11507.78
2022-10-26T14:30:03.736Z,-11501.13
2022-10-26T14:33:20.856Z,-11497.88
2022-10-26T14:36:33.128Z,-11497.03
2022-10-26T14:39:43.879Z,-11492.13
2022-10-26T14:42:52.751Z,-11485.63
2022-10-26T14:45:59.338Z,-11479.56
2022-10-26T14:49:05.952Z,-11473.91
2022-10-26T14:52:24.091Z,-11467.72
2022-10-26T14:55:33.126Z,-11459.25
2022-10-26T14:58:40.693Z,-11456.28
2022-10-26T15:01:52.963Z,-11452.06
2022-10-26T15:05:01.115Z,-11445.56
2022-10-26T15:08:52.594Z,-11443.47
2022-10-26T15:12:06.019Z,-11439.22
2022-10-26T15:18:36.328Z,-11430.22
2022-10-26T15:21:48.844Z,-11421.03
2022-10-26T15:24:57.523Z,-11422.03
2022-10-26T15:28:12.950Z,-11413.28
2022-10-26T15:31:34.494Z,-11407.78
2022-10-26T15:34:40.644Z,-11404.28
2022-10-26T15:37:47.489Z,-11396.53
2022-10-26T15:40:53.761Z,-11389.91
2022-10-26T15:44:06.020Z,-11388.47
2022-10-26T15:47:20.372Z,-11386.78
2022-10-26T15:50:28.298Z,-11385.66
2022-10-26T15:53:34.294Z,-11378.75
2022-10-26T15:56:43.730Z,-11374.97
2022-10-26T15:59:51.018Z,-11365.66
2022-10-26T16:02:57.550Z,-11365.53
2022-10-26T16:06:04.162Z,-11364.81
2022-10-26T16:09:14.749Z,-11358.91
2022-10-26T16:12:21.099Z,-11373.84
2022-10-26T16:15:28.897Z,-11381.16
2022-10-26T16:18:34.856Z,-11393.97
2022-10-26T16:21:41.956Z,-11394.97
2022-10-26T16:24:48.024Z,-11401.88
2022-10-26T16:27:55.812Z,-11379.47
2022-10-26T16:31:04.444Z,-11360.31
2022-10-26T16:34:10.436Z,-11349.47
2022-10-26T16:37:16.598Z,-11335.94
2022-10-26T16:40:22.918Z,-11328.75
2022-10-26T16:43:29.365Z,-11327.34
2022-10-26T16:46:37.233Z,-11322.84
2022-10-26T16:49:44.716Z,-11324.66
2022-10-26T16:52:50.879Z,-11327.34
2022-10-26T16:56:03.222Z,-11324.38
2022-10-26T16:59:10.620Z,-11328.19
2022-10-26T17:02:18.518Z,-11343.13
2022-10-26T17:05:24.677Z,-11341.28
2022-10-26T17:08:32.729Z,-11354.53
2022-10-26T17:11:39.011Z,-11341.44
2022-10-26T17:14:45.019Z,-11339.19
2022-10-26T17:17:52.748Z,-11331.00
2022-10-26T17:20:59.255Z,-11332.84
2022-10-26T17:24:06.861Z,-11331.84
2022-10-26T17:27:13.198Z,-11339.75
2022-10-26T17:30:19.862Z,-11333.13
2022-10-26T17:33:27.656Z,-11316.50
2022-10-26T17:36:33.769Z,-11317.78
2022-10-26T17:39:40.229Z,-11316.38
2022-10-26T17:42:46.590Z,-11312.13
2022-10-26T17:45:53.001Z,-11321.84
2022-10-26T17:49:01.835Z,-11313.69
2022-10-26T17:52:08.149Z,-11311.56
2022-10-26T17:55:14.597Z,-11303.97
2022-10-26T17:58:20.723Z,-11302.00
2022-10-26T18:01:28.502Z,-11299.75
2022-10-26T18:04:36.111Z,-11303.69
2022-10-26T18:07:42.088Z,-11298.34
2022-10-26T18:10:48.953Z,-11293.41
2022-10-26T18:13:55.384Z,-11284.56
2022-10-26T18:17:01.844Z,-11283.13
2022-10-26T18:20:10.661Z,-11282.44
2022-10-26T18:23:17.199Z,-11283.41
2022-10-26T18:26:24.673Z,-11279.91
2022-10-26T18:29:31.830Z,-11278.63
2022-10-26T18:32:39.313Z,-11276.66
2022-10-26T18:35:47.461Z,-11274.69
2022-10-26T18:38:54.395Z,-11278.91
2022-10-26T18:42:00.729Z,-11272.31
2022-10-26T18:45:07.980Z,-11273.28
2022-10-26T18:48:14.023Z,-11271.59
2022-10-26T18:51:25.595Z,-11273.72
2022-10-26T18:54:31.923Z,-11267.09
2022-10-26T18:57:38.092Z,-11261.88
2022-10-26T19:00:44.548Z,-11251.63
2022-10-26T19:03:54.926Z,-11253.16
2022-10-26T19:07:02.334Z,-11251.34
2022-10-26T19:10:09.952Z,-11262.31
2022-10-26T19:13:16.069Z,-11256.69
2022-10-26T19:16:40.624Z,-11255.97
2022-10-26T19:19:49.727Z,-11251.63
2022-10-26T19:22:57.372Z,-11247.97
2022-10-26T19:26:04.402Z,-11247.13
2022-10-26T19:29:13.915Z,-11242.47
2022-10-26T19:32:20.105Z,-11236.72
2022-10-26T19:35:26.279Z,-11242.59
2022-10-26T19:38:34.585Z,-11227.84
2022-10-26T19:41:40.721Z,-11221.78
2022-10-26T19:44:46.910Z,-11225.72
2022-10-26T19:47:53.173Z,-11222.34
2022-10-26T19:50:59.185Z,-11225.44
2022-10-26T19:54:07.662Z,-11215.88
2022-10-26T19:57:13.921Z,-11217.00
2022-10-26T20:00:20.584Z,-11214.19
2022-10-26T20:03:29.098Z,-11229.66
2022-10-26T20:06:35.621Z,-11233.47
2022-10-26T20:09:43.184Z,-11233.19
2022-10-26T20:12:49.833Z,-11230.09
2022-10-26T20:15:56.106Z,-11223.34
2022-10-26T20:19:02.607Z,-11212.09
2022-10-26T20:22:08.891Z,-11215.03
2022-10-26T20:25:16.911Z,-11208.28
2022-10-26T20:28:23.532Z,-11199.00
2022-10-26T20:31:29.687Z,-11202.38
2022-10-26T20:34:36.039Z,-11202.25
2022-10-26T20:37:42.965Z,-11212.38
2022-10-26T20:40:56.030Z,-11209.56
2022-10-26T20:44:02.755Z,-11191.41
2022-10-26T20:47:10.222Z,-11174.41
2022-10-26T20:50:17.347Z,-11184.66
2022-10-26T20:53:31.371Z,-11189.88
2022-10-26T20:56:42.629Z,-11183.97
2022-10-26T20:59:51.135Z,-11189.16
2022-10-26T21:02:57.107Z,-11184.38
2022-10-26T21:06:03.209Z,-11199.84
2022-10-26T21:09:10.315Z,-11195.63
2022-10-26T21:12:17.839Z,-11203.66
2022-10-26T21:15:23.606Z,-11201.81
2022-10-26T21:18:29.894Z,-11187.06
2022-10-26T21:21:36.027Z,-11183.53
2022-10-26T21:24:42.157Z,-11188.75
2022-10-26T21:27:50.337Z,-11175.38
2022-10-26T21:30:56.774Z,-11178.19
2022-10-26T21:34:03.063Z,-11179.03
2022-10-26T21:37:09.463Z,-11184.81
2022-10-26T21:40:16.380Z,-11187.75
2022-10-26T21:43:24.106Z,-11191.69
2022-10-26T21:46:30.673Z,-11191.84
2022-10-26T21:49:37.554Z,-11195.63
2022-10-26T21:52:43.775Z,-11190.00
2022-10-26T21:55:50.301Z,-11176.78
2022-10-26T21:59:00.216Z,-11159.09
2022-10-26T22:02:06.583Z,-11147.00
2022-10-26T22:05:12.570Z,-11161.75
2022-10-26T22:08:18.761Z,-11165.41
2022-10-26T22:11:26.133Z,-11170.06
2022-10-26T22:14:33.344Z,-11160.34
2022-10-26T22:17:40.032Z,-11164.44
2022-10-26T22:20:46.111Z,-11159.94
2022-10-26T22:23:52.477Z,-11173.97
2022-10-26T22:26:58.566Z,-11165.00
2022-10-26T22:30:07.800Z,-11158.09
2022-10-26T22:33:14.430Z,-11161.75
2022-10-26T22:36:20.294Z,-11155.16
2022-10-26T22:39:26.661Z,-11168.37
2022-10-26T22:42:33.000Z,-11150.09
2022-10-26T22:45:40.842Z,-11163.72
2022-10-26T22:48:47.276Z,-11147.41
2022-10-26T22:51:53.378Z,-11134.91
2022-10-26T22:54:59.945Z,-11145.47
2022-10-26T22:58:06.312Z,-11153.19
2022-10-26T23:01:15.906Z,-11160.78
2022-10-26T23:04:22.352Z,-11159.09
2022-10-26T23:07:30.649Z,-11155.16
2022-10-26T23:10:37.180Z,-11159.66
2022-10-26T23:13:43.747Z,-11170.19
2022-10-26T23:16:51.282Z,-11168.09
2022-10-26T23:19:57.549Z,-11136.59
2022-10-26T23:23:04.232Z,-11128.03
2022-10-26T23:26:13.029Z,-11126.78
2022-10-26T23:29:19.033Z,-11148.41
2022-10-26T23:32:26.476Z,-11153.19
2022-10-26T23:35:32.552Z,-11161.63
2022-10-26T23:38:38.766Z,-11141.66
2022-10-26T23:41:45.201Z,-11154.59
2022-10-26T23:44:51.267Z,-11141.25
2022-10-26T23:47:59.062Z,-11146.72
2022-10-26T23:51:05.269Z,-11159.38
2022-10-26T23:54:11.238Z,-11145.31
2022-10-26T23:57:17.519Z,-11134.50
